createdAt,value
2018-03-11T00:00:31.459Z,14.22
2018-03-11T00:03:00.551Z,14.27
2018-03-11T00:05:28.869Z,14.23
2018-03-11T00:07:57.300Z,14.22
2018-03-11T00:10:25.648Z,14.25
2018-03-11T00:12:54.284Z,14.13
2018-03-11T00:15:22.677Z,14.11
2018-03-11T00:17:51.038Z,14.00
2018-03-11T00:20:19.354Z,14.05
2018-03-11T00:22:47.667Z,14.04
2018-03-11T00:25:15.970Z,13.99
2018-03-11T00:27:45.058Z,14.08
2018-03-11T00:30:14.251Z,14.15
2018-03-11T00:32:42.575Z,14.17
2018-03-11T00:35:10.854Z,14.09
2018-03-11T00:37:39.159Z,14.14
2018-03-11T00:40:07.653Z,14.26
2018-03-11T00:42:36.631Z,14.28
2018-03-11T00:45:05.015Z,14.30
2018-03-11T00:47:33.328Z,14.17
2018-03-11T00:50:01.618Z,14.08
2018-03-11T00:52:30.050Z,14.15
2018-03-11T00:54:59.835Z,14.15
2018-03-11T00:57:28.173Z,14.01
2018-03-11T00:59:56.613Z,14.09
2018-03-11T01:02:25.698Z,14.15
2018-03-11T01:04:54.484Z,14.14
2018-03-11T01:07:22.933Z,14.11
2018-03-11T01:09:51.243Z,14.09
2018-03-11T01:12:19.585Z,14.09
2018-03-11T01:14:47.895Z,14.04
2018-03-11T01:17:16.409Z,14.06
2018-03-11T01:19:45.494Z,14.05
2018-03-11T01:22:14.753Z,14.11
2018-03-11T01:24:43.072Z,14.07
2018-03-11T01:27:12.227Z,14.06
2018-03-11T01:29:40.671Z,14.08
2018-03-11T01:32:08.992Z,14.09
2018-03-11T01:34:37.289Z,14.08
2018-03-11T01:37:05.600Z,14.13
2018-03-11T01:39:35.619Z,14.18
2018-03-11T01:42:04.083Z,14.15
2018-03-11T01:44:33.385Z,14.14
2018-03-11T01:47:02.526Z,14.16
2018-03-11T01:49:30.843Z,14.14
2018-03-11T01:51:59.106Z,14.13
2018-03-11T01:54:27.430Z,14.10
2018-03-11T01:56:55.848Z,14.04
2018-03-11T01:59:24.160Z,13.99
2018-03-11T02:01:53.215Z,13.98
2018-03-11T02:04:21.531Z,13.92
2018-03-11T02:06:50.594Z,13.87
2018-03-11T02:09:18.894Z,13.87
2018-03-11T02:11:49.045Z,13.86
2018-03-11T02:14:17.407Z,13.82
2018-03-11T02:16:46.487Z,13.78
2018-03-11T02:19:15.598Z,13.74
2018-03-11T02:21:44.666Z,13.71
2018-03-11T02:24:13.086Z,13.70
2018-03-11T02:26:41.558Z,13.68
2018-03-11T02:29:09.854Z,13.64
2018-03-11T02:31:38.287Z,13.63
2018-03-11T02:34:06.961Z,13.64
2018-03-11T02:36:36.094Z,13.63
2018-03-11T02:39:04.471Z,13.59
2018-03-11T02:41:33.716Z,13.59
2018-03-11T02:44:03.110Z,13.56
2018-03-11T02:46:31.480Z,13.51
2018-03-11T02:48:59.974Z,13.48
2018-03-11T02:51:28.556Z,13.49
2018-03-11T02:53:56.890Z,13.47
2018-03-11T02:56:25.989Z,13.46
2018-03-11T02:58:54.294Z,13.41
2018-03-11T03:01:22.606Z,13.34
2018-03-11T03:03:50.899Z,13.32
2018-03-11T03:06:19.976Z,13.28
2018-03-11T03:08:48.268Z,13.28
2018-03-11T03:11:16.590Z,13.24
2018-03-11T03:13:45.835Z,13.21
2018-03-11T03:16:16.764Z,13.17
2018-03-11T03:18:45.072Z,13.16
2018-03-11T03:21:14.179Z,13.16
2018-03-11T03:23:42.526Z,13.11
2018-03-11T03:26:10.861Z,13.10
2018-03-11T03:28:39.288Z,13.02
2018-03-11T03:31:07.549Z,13.03
2018-03-11T03:33:36.064Z,13.03
2018-03-11T03:36:05.138Z,13.01
2018-03-11T03:38:33.410Z,13.01
2018-03-11T03:41:01.790Z,13.00
2018-03-11T03:43:30.203Z,12.97
2018-03-11T03:45:58.709Z,12.96
2018-03-11T03:48:27.254Z,12.94
2018-03-11T03:50:56.324Z,12.90
2018-03-11T03:53:24.625Z,12.89
2018-03-11T03:55:52.910Z,12.87
2018-03-11T03:58:21.304Z,12.84
2018-03-11T04:00:49.829Z,12.82
2018-03-11T04:03:18.178Z,12.80
2018-03-11T04:05:46.595Z,12.77
2018-03-11T04:08:14.990Z,12.75
2018-03-11T04:10:44.152Z,12.72
2018-03-11T04:13:12.511Z,12.66
2018-03-11T04:15:41.848Z,12.69
2018-03-11T04:18:10.121Z,12.61
2018-03-11T04:20:38.470Z,12.58
2018-03-11T04:23:06.904Z,12.61
2018-03-11T04:25:36.056Z,12.63
2018-03-11T04:28:04.349Z,12.60
2018-03-11T04:30:33.684Z,12.61
2018-03-11T04:33:02.026Z,12.67
2018-03-11T04:35:30.620Z,12.64
2018-03-11T04:37:58.904Z,12.55
2018-03-11T04:40:28.704Z,12.55
2018-03-11T04:42:57.040Z,12.36
2018-03-11T04:45:25.415Z,12.24
2018-03-11T04:47:54.531Z,12.13
2018-03-11T04:50:22.821Z,12.16
2018-03-11T04:52:51.242Z,12.10
2018-03-11T04:55:19.555Z,12.17
2018-03-11T04:57:47.898Z,12.18
2018-03-11T05:00:16.235Z,12.25
2018-03-11T05:02:44.540Z,12.33
2018-03-11T05:05:13.650Z,12.43
2018-03-11T05:07:42.112Z,12.37
2018-03-11T05:10:11.284Z,12.36
2018-03-11T05:12:39.650Z,12.34
2018-03-11T05:15:08.243Z,12.29
2018-03-11T05:17:37.337Z,12.28
2018-03-11T05:20:05.655Z,12.33
2018-03-11T05:22:34.006Z,12.34
2018-03-11T05:25:02.284Z,12.36
2018-03-11T05:27:30.685Z,12.38
2018-03-11T05:29:59.002Z,12.44
2018-03-11T05:32:27.524Z,12.50
2018-03-11T05:34:56.607Z,12.47
2018-03-11T05:37:24.919Z,12.42
2018-03-11T05:39:53.250Z,12.35
2018-03-11T05:42:21.838Z,12.36
2018-03-11T05:44:50.215Z,12.31
2018-03-11T05:47:18.940Z,12.29
2018-03-11T05:49:48.773Z,12.29
2018-03-11T05:52:17.212Z,12.26
2018-03-11T05:54:45.641Z,12.21
2018-03-11T05:57:14.227Z,12.24
2018-03-11T05:59:42.589Z,12.27
2018-03-11T06:02:10.910Z,12.40
2018-03-11T06:04:39.194Z,12.30
2018-03-11T06:07:07.480Z,12.31
2018-03-11T06:09:35.881Z,12.37
2018-03-11T06:12:04.234Z,12.50
2018-03-11T06:14:32.606Z,12.44
2018-03-11T06:17:02.032Z,12.50
2018-03-11T06:19:30.507Z,12.54
2018-03-11T06:21:59.711Z,12.55
2018-03-11T06:24:28.852Z,12.59
2018-03-11T06:26:57.165Z,12.62
2018-03-11T06:29:26.321Z,12.55
2018-03-11T06:31:54.656Z,12.59
2018-03-11T06:34:22.976Z,12.64
2018-03-11T06:36:51.281Z,12.64
2018-03-11T06:39:19.801Z,12.71
2018-03-11T06:41:48.065Z,12.77
2018-03-11T06:44:17.130Z,12.63
2018-03-11T06:46:45.566Z,12.59
2018-03-11T06:49:13.906Z,12.60
2018-03-11T06:51:43.143Z,12.66
2018-03-11T06:54:11.464Z,12.79
2018-03-11T06:56:39.834Z,12.81
2018-03-11T06:59:08.190Z,12.83
2018-03-11T07:01:36.470Z,12.91
2018-03-11T07:04:04.830Z,12.93
2018-03-11T07:06:33.212Z,12.94
2018-03-11T07:09:01.676Z,12.97
2018-03-11T07:11:29.936Z,13.00
2018-03-11T07:13:59.186Z,13.07
2018-03-11T07:16:28.610Z,13.11
2018-03-11T07:18:56.922Z,13.14
2018-03-11T07:21:25.279Z,13.20
2018-03-11T07:23:53.577Z,13.21
2018-03-11T07:26:21.851Z,13.25
2018-03-11T07:28:50.186Z,13.27
2018-03-11T07:31:18.554Z,13.31
2018-03-11T07:33:46.860Z,13.37
2018-03-11T07:36:15.156Z,13.41
2018-03-11T07:38:43.432Z,13.47
2018-03-11T07:41:12.777Z,13.56
2018-03-11T07:43:41.151Z,13.57
2018-03-11T07:46:11.074Z,13.63
2018-03-11T07:48:39.506Z,13.67
2018-03-11T07:51:08.852Z,13.69
2018-03-11T07:53:37.310Z,13.74
2018-03-11T07:56:05.611Z,13.75
2018-03-11T07:58:33.935Z,13.81
2018-03-11T08:01:03.285Z,13.82
2018-03-11T08:03:31.596Z,13.83
2018-03-11T08:05:59.904Z,13.87
2018-03-11T08:08:30.024Z,13.87
2018-03-11T08:10:58.527Z,13.97
2018-03-11T08:13:27.093Z,13.99
2018-03-11T08:15:56.426Z,14.02
2018-03-11T08:18:24.946Z,14.02
2018-03-11T08:20:53.266Z,14.11
2018-03-11T08:23:22.004Z,14.15
2018-03-11T08:25:50.457Z,14.17
2018-03-11T08:28:19.787Z,14.13
2018-03-11T08:30:48.157Z,14.08
2018-03-11T08:33:16.488Z,14.13
2018-03-11T08:35:44.960Z,14.13
2018-03-11T08:38:13.558Z,14.23
2018-03-11T08:40:42.125Z,14.21
2018-03-11T08:43:10.567Z,14.18
2018-03-11T08:45:38.902Z,14.13
2018-03-11T08:48:07.371Z,14.20
2018-03-11T08:50:38.336Z,14.27
2018-03-11T08:53:06.807Z,14.33
2018-03-11T08:55:35.214Z,14.44
2018-03-11T08:58:03.532Z,14.53
2018-03-11T09:00:31.836Z,14.66
2018-03-11T09:03:00.238Z,14.88
2018-03-11T09:05:28.639Z,15.57
2018-03-11T09:07:57.728Z,16.70
2018-03-11T09:10:26.193Z,17.60
2018-03-11T09:12:54.532Z,18.07
2018-03-11T09:15:22.892Z,18.17
2018-03-11T09:17:52.112Z,18.33
2018-03-11T09:20:20.466Z,17.39
2018-03-11T09:22:49.765Z,16.88
2018-03-11T09:25:19.016Z,16.44
2018-03-11T09:27:47.555Z,16.23
2018-03-11T09:30:15.833Z,16.01
2018-03-11T09:32:44.160Z,15.78
2018-03-11T09:35:12.563Z,15.61
2018-03-11T09:37:41.151Z,15.58
2018-03-11T09:40:10.393Z,15.57
2018-03-11T09:42:39.799Z,15.58
2018-03-11T09:45:08.362Z,15.56
2018-03-11T09:47:37.621Z,15.65
2018-03-11T09:50:05.969Z,15.66
2018-03-11T09:52:34.563Z,15.69
2018-03-11T09:55:03.078Z,15.61
2018-03-11T09:57:32.207Z,15.73
2018-03-11T10:00:00.543Z,15.73
2018-03-11T10:02:29.760Z,15.80
2018-03-11T10:04:58.855Z,15.91
2018-03-11T10:07:29.212Z,16.00
2018-03-11T10:09:57.582Z,15.99
2018-03-11T10:12:26.071Z,15.94
2018-03-11T10:14:54.504Z,16.10
2018-03-11T10:17:23.877Z,16.32
2018-03-11T10:19:52.251Z,16.35
2018-03-11T10:22:20.569Z,16.45
2018-03-11T10:24:49.770Z,16.47
2018-03-11T10:27:18.868Z,16.55
2018-03-11T10:29:49.206Z,16.60
2018-03-11T10:32:17.789Z,16.66
2018-03-11T10:34:46.319Z,16.64
2018-03-11T10:37:17.224Z,16.76
2018-03-11T10:39:45.669Z,16.77
2018-03-11T10:42:13.990Z,16.78
2018-03-11T10:44:42.313Z,16.73
2018-03-11T10:47:11.854Z,16.68
2018-03-11T10:49:40.189Z,16.70
2018-03-11T10:52:12.887Z,16.71
2018-03-11T10:54:41.229Z,16.59
2018-03-11T10:57:09.551Z,16.72
2018-03-11T10:59:39.633Z,16.74
2018-03-11T11:02:13.446Z,16.76
2018-03-11T11:04:42.859Z,16.76
2018-03-11T11:07:11.166Z,17.34
2018-03-11T11:09:39.823Z,17.52
2018-03-11T11:12:08.922Z,17.74
2018-03-11T11:14:37.516Z,17.65
2018-03-11T11:17:06.639Z,17.76
2018-03-11T11:19:35.088Z,17.74
2018-03-11T11:22:03.538Z,17.69
2018-03-11T11:24:31.833Z,17.80
2018-03-11T11:27:01.103Z,17.94
2018-03-11T11:29:29.383Z,18.00
2018-03-11T11:31:57.747Z,17.96
2018-03-11T11:34:27.966Z,17.94
2018-03-11T11:36:56.329Z,17.36
2018-03-11T11:39:24.678Z,17.09
2018-03-11T11:41:53.928Z,16.98
2018-03-11T11:44:22.864Z,16.94
2018-03-11T11:46:52.117Z,16.91
2018-03-11T11:49:20.464Z,16.76
2018-03-11T11:51:48.768Z,16.75
2018-03-11T11:54:17.231Z,16.68
2018-03-11T11:56:45.726Z,16.66
2018-03-11T11:59:14.258Z,16.62
2018-03-11T12:01:43.647Z,16.51
2018-03-11T12:04:12.159Z,16.47
2018-03-11T12:06:40.659Z,16.54
2018-03-11T12:09:09.127Z,16.48
2018-03-11T12:11:37.467Z,16.37
2018-03-11T12:14:05.958Z,16.40
2018-03-11T12:16:35.032Z,16.46
2018-03-11T12:19:03.441Z,16.47
2018-03-11T12:21:32.527Z,16.49
2018-03-11T12:24:02.868Z,16.49
2018-03-11T12:26:31.214Z,16.58
2018-03-11T12:28:59.587Z,16.65
2018-03-11T12:31:28.097Z,16.74
2018-03-11T12:33:57.318Z,16.72
2018-03-11T12:36:25.638Z,16.79
2018-03-11T12:38:54.011Z,16.73
2018-03-11T12:41:22.377Z,16.82
2018-03-11T12:43:50.760Z,16.88
2018-03-11T12:46:19.120Z,16.89
2018-03-11T12:48:47.658Z,16.90
2018-03-11T12:51:18.092Z,16.79
2018-03-11T12:53:47.429Z,16.94
2018-03-11T12:56:15.768Z,16.98
2018-03-11T12:58:44.202Z,17.08
2018-03-11T13:01:12.580Z,17.20
2018-03-11T13:03:41.119Z,17.13
2018-03-11T13:06:09.506Z,17.21
2018-03-11T13:08:37.842Z,17.21
2018-03-11T13:11:07.187Z,17.12
2018-03-11T13:13:35.563Z,17.12
2018-03-11T13:16:04.271Z,17.21
2018-03-11T13:18:32.795Z,17.25
2018-03-11T13:21:09.749Z,17.16
2018-03-11T13:23:38.898Z,17.11
2018-03-11T13:26:07.972Z,17.10
2018-03-11T13:28:50.138Z,17.22
2018-03-11T13:31:18.458Z,17.30
2018-03-11T13:34:14.787Z,17.24
2018-03-11T13:36:43.383Z,17.19
2018-03-11T13:39:29.500Z,17.21
2018-03-11T13:41:57.903Z,17.25
2018-03-11T13:44:26.433Z,17.16
2018-03-11T13:47:14.511Z,17.16
2018-03-11T13:49:43.068Z,17.04
2018-03-11T13:52:30.621Z,17.08
2018-03-11T13:54:59.247Z,17.09
2018-03-11T14:01:00.363Z,17.07
2018-03-11T14:03:29.651Z,17.20
2018-03-11T14:05:57.971Z,17.00
2018-03-11T14:08:26.378Z,17.03
2018-03-11T14:10:54.953Z,17.08
2018-03-11T14:13:24.252Z,17.09
2018-03-11T14:15:53.340Z,17.03
2018-03-11T14:18:22.600Z,16.96
2018-03-11T14:20:50.972Z,16.95
2018-03-11T14:23:21.069Z,16.98
2018-03-11T14:25:49.421Z,16.98
2018-03-11T14:28:18.702Z,16.98
2018-03-11T14:30:47.058Z,16.99
2018-03-11T14:33:16.238Z,17.01
2018-03-11T14:35:44.742Z,16.93
2018-03-11T14:38:13.164Z,17.01
2018-03-11T14:40:41.679Z,17.10
2018-03-11T14:43:10.259Z,17.09
2018-03-11T14:45:38.672Z,17.08
2018-03-11T14:48:07.022Z,17.08
2018-03-11T14:50:36.618Z,17.12
2018-03-11T14:53:05.051Z,17.18
2018-03-11T14:55:33.501Z,17.21
2018-03-11T14:58:01.802Z,17.21
2018-03-11T15:00:30.237Z,17.22
2018-03-11T15:02:58.667Z,17.26
2018-03-11T15:05:27.404Z,17.29
2018-03-11T15:07:55.968Z,17.30
2018-03-11T15:10:24.349Z,17.33
2018-03-11T15:12:53.878Z,17.36
2018-03-11T15:15:22.400Z,17.30
2018-03-11T15:17:51.554Z,17.26
2018-03-11T15:20:21.080Z,17.17
2018-03-11T15:22:49.969Z,16.99
2018-03-11T15:25:18.510Z,17.08
2018-03-11T15:27:47.174Z,17.10
2018-03-11T15:30:16.296Z,17.07
2018-03-11T15:32:44.627Z,16.93
2018-03-11T15:35:13.111Z,16.80
2018-03-11T15:37:41.495Z,16.91
2018-03-11T15:40:09.956Z,16.82
2018-03-11T15:42:38.514Z,16.87
2018-03-11T15:45:07.771Z,16.94
2018-03-11T15:47:37.315Z,17.03
2018-03-11T15:50:09.075Z,16.99
2018-03-11T15:52:37.388Z,16.95
2018-03-11T15:55:06.047Z,16.86
2018-03-11T15:57:34.600Z,16.88
2018-03-11T16:00:03.898Z,17.04
2018-03-11T16:02:33.766Z,17.08
2018-03-11T16:05:02.155Z,17.17
2018-03-11T16:07:30.707Z,17.06
2018-03-11T16:09:59.384Z,17.02
2018-03-11T16:12:27.717Z,16.87
2018-03-11T16:14:56.899Z,17.03
2018-03-11T16:17:25.348Z,17.08
2018-03-11T16:19:55.949Z,17.08
2018-03-11T16:22:24.465Z,17.12
2018-03-11T16:24:54.675Z,17.07
2018-03-11T16:27:24.180Z,17.00
2018-03-11T16:29:52.625Z,16.98
2018-03-11T16:32:21.708Z,16.96
2018-03-11T16:34:50.395Z,16.96
2018-03-11T16:37:19.635Z,16.86
2018-03-11T16:39:48.047Z,16.88
2018-03-11T16:42:16.546Z,16.76
2018-03-11T16:44:44.998Z,16.71
2018-03-11T16:47:13.607Z,16.68
2018-03-11T16:49:42.020Z,16.73
2018-03-11T16:52:10.800Z,16.68
2018-03-11T16:54:40.058Z,16.72
2018-03-11T16:57:08.474Z,16.65
2018-03-11T16:59:38.054Z,16.63
2018-03-11T17:02:06.479Z,16.64
2018-03-11T17:04:34.848Z,16.60
2018-03-11T17:07:04.322Z,16.60
2018-03-11T17:09:32.670Z,16.58
2018-03-11T17:12:01.023Z,16.57
2018-03-11T17:14:29.715Z,16.51
2018-03-11T17:16:58.190Z,16.42
2018-03-11T17:19:26.858Z,16.39
2018-03-11T17:21:55.255Z,17.42
2018-03-11T17:26:58.961Z,19.19
2018-03-11T17:29:27.449Z,19.63
2018-03-11T17:31:55.789Z,19.83
2018-03-11T17:34:24.255Z,20.16
2018-03-11T17:36:55.369Z,20.20
2018-03-11T17:39:24.552Z,20.22
2018-03-11T17:41:53.221Z,20.10
2018-03-11T17:44:21.688Z,19.50
2018-03-11T17:46:52.536Z,18.91
2018-03-11T17:49:22.009Z,18.38
2018-03-11T17:51:50.832Z,17.95
2018-03-11T17:54:19.461Z,17.57
2018-03-11T17:56:48.020Z,17.26
2018-03-11T17:59:16.596Z,17.00
2018-03-11T18:04:18.610Z,16.50
2018-03-11T18:06:47.313Z,16.18
2018-03-11T18:09:15.896Z,15.92
2018-03-11T18:11:45.975Z,15.82
2018-03-11T18:14:14.369Z,15.82
2018-03-11T18:16:42.840Z,15.71
2018-03-11T18:19:11.314Z,15.57
2018-03-11T18:21:40.016Z,15.54
2018-03-11T18:24:08.567Z,15.53
2018-03-11T18:26:36.930Z,15.53
2018-03-11T18:29:06.178Z,15.52
2018-03-11T18:31:34.550Z,15.48
2018-03-11T18:34:04.065Z,15.46
2018-03-11T18:36:32.605Z,15.42
2018-03-11T18:39:01.005Z,15.38
2018-03-11T18:41:29.372Z,15.36
2018-03-11T18:43:57.950Z,15.12
2018-03-11T18:46:30.395Z,14.82
2018-03-11T18:48:59.755Z,14.79
2018-03-11T18:51:28.233Z,14.84
2018-03-11T18:53:57.944Z,14.86
2018-03-11T18:56:26.407Z,14.88
2018-03-11T18:58:54.808Z,14.87
2018-03-11T19:01:23.106Z,14.90
2018-03-11T19:03:51.555Z,14.82
2018-03-11T19:06:20.055Z,14.81
2018-03-11T19:08:50.000Z,14.54
2018-03-11T19:11:19.310Z,14.42
2018-03-11T19:13:48.649Z,14.29
2018-03-11T19:16:17.035Z,14.19
2018-03-11T19:18:45.508Z,14.48
2018-03-11T19:21:13.966Z,14.48
2018-03-11T19:23:43.823Z,14.51
2018-03-11T19:26:14.616Z,14.50
2018-03-11T19:28:43.705Z,14.52
2018-03-11T19:31:12.224Z,14.50
2018-03-11T19:33:40.614Z,14.51
2018-03-11T19:36:09.070Z,14.49
2018-03-11T19:38:37.799Z,14.46
2018-03-11T19:41:06.115Z,14.41
2018-03-11T19:43:34.607Z,14.39
2018-03-11T19:46:03.070Z,14.36
2018-03-11T19:48:31.647Z,14.33
2018-03-11T19:51:01.094Z,14.29
2018-03-11T19:53:29.876Z,14.30
2018-03-11T19:55:58.595Z,14.27
2018-03-11T20:01:00.918Z,14.19
2018-03-11T20:03:30.200Z,14.17
2018-03-11T20:05:59.349Z,14.10
2018-03-11T20:08:27.744Z,14.03
2018-03-11T20:10:56.304Z,13.99
2018-03-11T20:13:24.682Z,13.96
2018-03-11T20:15:53.204Z,13.99
2018-03-11T20:18:21.762Z,13.95
2018-03-11T20:20:50.179Z,13.87
2018-03-11T20:23:19.423Z,13.80
2018-03-11T20:25:47.829Z,13.79
2018-03-11T20:28:16.330Z,13.74
2018-03-11T20:30:44.671Z,13.79
2018-03-11T20:33:13.357Z,13.84
2018-03-11T20:35:41.886Z,13.85
2018-03-11T20:38:11.027Z,13.86
2018-03-11T20:40:40.926Z,13.85
2018-03-11T20:43:10.940Z,13.79
2018-03-11T20:45:40.175Z,13.77
2018-03-11T20:48:08.594Z,13.81
2018-03-11T20:50:37.749Z,13.82
2018-03-11T20:53:06.193Z,13.80
2018-03-11T20:55:34.546Z,13.82
2018-03-11T20:58:02.930Z,13.78
2018-03-11T21:00:32.279Z,13.77
2018-03-11T21:03:00.963Z,13.78
2018-03-11T21:05:29.349Z,13.73
2018-03-11T21:07:57.661Z,13.68
2018-03-11T21:10:26.339Z,13.70
2018-03-11T21:12:54.679Z,13.66
2018-03-11T21:15:23.366Z,13.67
2018-03-11T21:17:51.688Z,13.65
2018-03-11T21:20:20.080Z,13.64
2018-03-11T21:22:49.500Z,13.65
2018-03-11T21:25:18.645Z,13.61
2018-03-11T21:27:46.932Z,13.61
2018-03-11T21:30:27.925Z,13.59
2018-03-11T21:32:56.289Z,13.53
2018-03-11T21:35:25.589Z,13.49
2018-03-11T21:37:54.834Z,13.52
2018-03-11T21:40:23.215Z,13.47
2018-03-11T21:42:51.541Z,13.37
2018-03-11T21:45:21.554Z,13.27
2018-03-11T21:47:49.898Z,13.27
2018-03-11T21:50:18.262Z,13.33
2018-03-11T21:52:46.897Z,13.33
2018-03-11T21:55:15.244Z,13.36
2018-03-11T21:57:43.608Z,13.30
2018-03-11T22:00:13.684Z,13.23
2018-03-11T22:02:43.455Z,13.23
2018-03-11T22:05:11.828Z,13.23
2018-03-11T22:07:40.185Z,13.25
2018-03-11T22:10:10.859Z,13.06
2018-03-11T22:12:39.215Z,13.00
2018-03-11T22:15:07.708Z,13.03
2018-03-11T22:17:35.976Z,12.99
2018-03-11T22:20:04.441Z,12.99
2018-03-11T22:22:32.927Z,13.08
2018-03-11T22:25:01.289Z,13.08
2018-03-11T22:27:29.755Z,13.07
2018-03-11T22:29:58.910Z,13.04
2018-03-11T22:32:27.233Z,12.92
2018-03-11T22:34:55.535Z,12.75
2018-03-11T22:37:23.885Z,12.72
2018-03-11T22:39:53.041Z,12.78
2018-03-11T22:42:21.557Z,12.72
2018-03-11T22:44:50.682Z,12.70
2018-03-11T22:47:19.069Z,12.66
2018-03-11T22:49:47.516Z,12.76
2018-03-11T22:52:16.780Z,12.81
2018-03-11T22:54:45.092Z,12.78
2018-03-11T22:57:14.255Z,12.74
2018-03-11T22:59:42.649Z,12.75
2018-03-11T23:02:10.990Z,12.75
2018-03-11T23:04:39.260Z,12.79
2018-03-11T23:07:07.766Z,12.67
2018-03-11T23:09:36.129Z,12.67
2018-03-11T23:12:05.539Z,12.57
2018-03-11T23:14:33.861Z,12.60
2018-03-11T23:17:02.210Z,12.59
2018-03-11T23:19:30.548Z,12.57
2018-03-11T23:21:58.861Z,12.55
2018-03-11T23:24:27.162Z,12.59
2018-03-11T23:26:56.286Z,12.56
2018-03-11T23:29:24.587Z,12.50
2018-03-11T23:31:52.951Z,12.47
2018-03-11T23:34:21.221Z,12.40
2018-03-11T23:36:49.439Z,12.35
2018-03-11T23:39:17.716Z,12.30
2018-03-11T23:41:47.656Z,12.28
2018-03-11T23:44:17.884Z,12.25
2018-03-11T23:46:46.937Z,12.27
2018-03-11T23:49:15.245Z,12.30
2018-03-11T23:51:44.320Z,12.27
2018-03-11T23:54:12.656Z,11.99
2018-03-11T23:56:40.950Z,11.81
2018-03-11T23:59:09.215Z,11.74
